sensor_id;sensor_type;location;lat;lon;timestamp;P1;durP1;ratioP1;P2;durP2;ratioP2
3311;SDS011;1668;49.648;8.570;2022-12-18T00:00:48;38.53;;;18.17;;
3311;SDS011;1668;49.648;8.570;2022-12-18T00:03:15;37.43;;;17.27;;
3311;SDS011;1668;49.648;8.570;2022-12-18T00:05:46;38.33;;;17.70;;
3311;SDS011;1668;49.648;8.570;2022-12-18T00:08:13;38.27;;;18.10;;
3311;SDS011;1668;49.648;8.570;2022-12-18T00:10:40;37.87;;;18.33;;
3311;SDS011;1668;49.648;8.570;2022-12-18T00:13:09;36.30;;;16.23;;
3311;SDS011;1668;49.648;8.570;2022-12-18T00:15:36;42.13;;;19.20;;
3311;SDS011;1668;49.648;8.570;2022-12-18T00:18:04;41.20;;;18.87;;
3311;SDS011;1668;49.648;8.570;2022-12-18T00:20:35;42.13;;;18.97;;
3311;SDS011;1668;49.648;8.570;2022-12-18T00:23:02;38.70;;;18.70;;
3311;SDS011;1668;49.648;8.570;2022-12-18T00:25:30;43.53;;;19.03;;
3311;SDS011;1668;49.648;8.570;2022-12-18T00:27:59;36.70;;;17.20;;
3311;SDS011;1668;49.648;8.570;2022-12-18T00:30:27;39.17;;;18.50;;
3311;SDS011;1668;49.648;8.570;2022-12-18T00:32:54;35.53;;;17.63;;
3311;SDS011;1668;49.648;8.570;2022-12-18T00:35:21;37.73;;;17.87;;
3311;SDS011;1668;49.648;8.570;2022-12-18T00:37:48;41.70;;;19.40;;
3311;SDS011;1668;49.648;8.570;2022-12-18T00:40:15;42.43;;;18.50;;
3311;SDS011;1668;49.648;8.570;2022-12-18T00:42:42;38.60;;;17.30;;
3311;SDS011;1668;49.648;8.570;2022-12-18T00:45:27;38.93;;;18.53;;
3311;SDS011;1668;49.648;8.570;2022-12-18T00:47:56;37.93;;;18.33;;
3311;SDS011;1668;49.648;8.570;2022-12-18T00:50:24;36.53;;;18.40;;
3311;SDS011;1668;49.648;8.570;2022-12-18T00:52:51;41.70;;;19.00;;
3311;SDS011;1668;49.648;8.570;2022-12-18T00:55:18;34.33;;;16.43;;
3311;SDS011;1668;49.648;8.570;2022-12-18T00:57:45;45.13;;;18.70;;
3311;SDS011;1668;49.648;8.570;2022-12-18T01:00:13;38.50;;;18.17;;
3311;SDS011;1668;49.648;8.570;2022-12-18T01:02:42;40.33;;;18.00;;
3311;SDS011;1668;49.648;8.570;2022-12-18T01:05:10;39.23;;;17.93;;
3311;SDS011;1668;49.648;8.570;2022-12-18T01:07:38;42.00;;;18.70;;
3311;SDS011;1668;49.648;8.570;2022-12-18T01:10:05;37.40;;;17.73;;
3311;SDS011;1668;49.648;8.570;2022-12-18T01:12:33;36.57;;;17.83;;
3311;SDS011;1668;49.648;8.570;2022-12-18T01:15:00;39.10;;;18.67;;
3311;SDS011;1668;49.648;8.570;2022-12-18T01:17:27;31.20;;;15.73;;
3311;SDS011;1668;49.648;8.570;2022-12-18T01:19:55;38.33;;;17.87;;
3311;SDS011;1668;49.648;8.570;2022-12-18T01:22:22;31.40;;;16.03;;
3311;SDS011;1668;49.648;8.570;2022-12-18T01:24:49;31.33;;;15.83;;
3311;SDS011;1668;49.648;8.570;2022-12-18T01:27:16;33.20;;;16.00;;
3311;SDS011;1668;49.648;8.570;2022-12-18T01:29:43;31.20;;;16.40;;
3311;SDS011;1668;49.648;8.570;2022-12-18T01:32:10;39.30;;;16.70;;
3311;SDS011;1668;49.648;8.570;2022-12-18T01:34:37;34.20;;;16.67;;
3311;SDS011;1668;49.648;8.570;2022-12-18T01:37:05;36.10;;;17.10;;
3311;SDS011;1668;49.648;8.570;2022-12-18T01:39:32;32.60;;;15.60;;
3311;SDS011;1668;49.648;8.570;2022-12-18T01:41:59;34.50;;;16.37;;
3311;SDS011;1668;49.648;8.570;2022-12-18T01:47:21;36.73;;;16.67;;
3311;SDS011;1668;49.648;8.570;2022-12-18T01:49:50;35.30;;;17.23;;
3311;SDS011;1668;49.648;8.570;2022-12-18T01:52:20;31.20;;;15.40;;
3311;SDS011;1668;49.648;8.570;2022-12-18T01:54:47;36.97;;;17.43;;
3311;SDS011;1668;49.648;8.570;2022-12-18T01:57:16;33.57;;;16.67;;
3311;SDS011;1668;49.648;8.570;2022-12-18T01:59:44;31.30;;;15.57;;
3311;SDS011;1668;49.648;8.570;2022-12-18T02:02:13;32.87;;;16.17;;
3311;SDS011;1668;49.648;8.570;2022-12-18T02:04:41;36.03;;;16.50;;
3311;SDS011;1668;49.648;8.570;2022-12-18T02:07:10;37.17;;;17.30;;
3311;SDS011;1668;49.648;8.570;2022-12-18T02:09:45;34.50;;;15.70;;
3311;SDS011;1668;49.648;8.570;2022-12-18T02:12:16;36.93;;;17.70;;
3311;SDS011;1668;49.648;8.570;2022-12-18T02:14:48;34.43;;;16.33;;
3311;SDS011;1668;49.648;8.570;2022-12-18T02:17:21;32.30;;;15.30;;
3311;SDS011;1668;49.648;8.570;2022-12-18T02:19:54;33.70;;;16.30;;
3311;SDS011;1668;49.648;8.570;2022-12-18T02:22:34;32.30;;;16.63;;
3311;SDS011;1668;49.648;8.570;2022-12-18T02:25:13;35.50;;;17.17;;
3311;SDS011;1668;49.648;8.570;2022-12-18T02:27:53;39.33;;;17.67;;
3311;SDS011;1668;49.648;8.570;2022-12-18T02:30:25;38.23;;;17.07;;
3311;SDS011;1668;49.648;8.570;2022-12-18T02:32:53;37.03;;;16.40;;
3311;SDS011;1668;49.648;8.570;2022-12-18T02:35:22;35.43;;;16.73;;
3311;SDS011;1668;49.648;8.570;2022-12-18T02:37:53;32.60;;;16.20;;
3311;SDS011;1668;49.648;8.570;2022-12-18T02:40:21;36.20;;;16.60;;
3311;SDS011;1668;49.648;8.570;2022-12-18T02:42:50;35.83;;;16.57;;
3311;SDS011;1668;49.648;8.570;2022-12-18T02:45:18;36.63;;;16.83;;
3311;SDS011;1668;49.648;8.570;2022-12-18T02:47:45;37.70;;;16.27;;
3311;SDS011;1668;49.648;8.570;2022-12-18T02:50:17;35.93;;;16.90;;
3311;SDS011;1668;49.648;8.570;2022-12-18T02:52:51;37.90;;;16.83;;
3311;SDS011;1668;49.648;8.570;2022-12-18T02:55:27;37.23;;;16.63;;
3311;SDS011;1668;49.648;8.570;2022-12-18T02:58:03;34.90;;;17.13;;
3311;SDS011;1668;49.648;8.570;2022-12-18T03:00:37;37.17;;;17.03;;
3311;SDS011;1668;49.648;8.570;2022-12-18T03:03:09;34.93;;;15.87;;
3311;SDS011;1668;49.648;8.570;2022-12-18T03:05:40;34.03;;;15.63;;
3311;SDS011;1668;49.648;8.570;2022-12-18T03:08:14;38.07;;;17.00;;
3311;SDS011;1668;49.648;8.570;2022-12-18T03:10:45;36.33;;;17.57;;
3311;SDS011;1668;49.648;8.570;2022-12-18T03:13:16;38.30;;;17.60;;
3311;SDS011;1668;49.648;8.570;2022-12-18T03:15:48;39.07;;;17.47;;
3311;SDS011;1668;49.648;8.570;2022-12-18T03:18:19;38.93;;;18.33;;
3311;SDS011;1668;49.648;8.570;2022-12-18T03:20:51;44.20;;;18.43;;
3311;SDS011;1668;49.648;8.570;2022-12-18T03:23:21;42.30;;;17.53;;
3311;SDS011;1668;49.648;8.570;2022-12-18T03:25:51;39.40;;;18.50;;
3311;SDS011;1668;49.648;8.570;2022-12-18T03:28:22;37.93;;;16.33;;
3311;SDS011;1668;49.648;8.570;2022-12-18T03:30:51;32.57;;;15.97;;
3311;SDS011;1668;49.648;8.570;2022-12-18T03:33:23;39.83;;;17.90;;
3311;SDS011;1668;49.648;8.570;2022-12-18T03:35:52;37.97;;;15.67;;
3311;SDS011;1668;49.648;8.570;2022-12-18T03:38:19;32.90;;;15.60;;
3311;SDS011;1668;49.648;8.570;2022-12-18T03:40:50;38.33;;;17.40;;
3311;SDS011;1668;49.648;8.570;2022-12-18T03:43:25;33.47;;;15.30;;
3311;SDS011;1668;49.648;8.570;2022-12-18T03:46:02;34.53;;;15.93;;
3311;SDS011;1668;49.648;8.570;2022-12-18T03:48:35;36.87;;;17.73;;
3311;SDS011;1668;49.648;8.570;2022-12-18T03:51:09;33.00;;;15.37;;
3311;SDS011;1668;49.648;8.570;2022-12-18T03:53:41;39.63;;;16.13;;
3311;SDS011;1668;49.648;8.570;2022-12-18T03:56:14;36.87;;;16.50;;
3311;SDS011;1668;49.648;8.570;2022-12-18T03:58:43;40.37;;;17.03;;
3311;SDS011;1668;49.648;8.570;2022-12-18T04:01:13;45.30;;;18.00;;
3311;SDS011;1668;49.648;8.570;2022-12-18T04:03:42;34.93;;;17.10;;
3311;SDS011;1668;49.648;8.570;2022-12-18T04:06:11;38.73;;;16.20;;
3311;SDS011;1668;49.648;8.570;2022-12-18T04:08:39;42.43;;;17.10;;
3311;SDS011;1668;49.648;8.570;2022-12-18T04:11:07;38.87;;;16.80;;
3311;SDS011;1668;49.648;8.570;2022-12-18T04:13:35;36.93;;;17.37;;
3311;SDS011;1668;49.648;8.570;2022-12-18T04:16:03;37.33;;;17.10;;
3311;SDS011;1668;49.648;8.570;2022-12-18T04:18:32;30.97;;;15.67;;
3311;SDS011;1668;49.648;8.570;2022-12-18T04:20:59;35.13;;;16.97;;
3311;SDS011;1668;49.648;8.570;2022-12-18T04:23:26;45.87;;;17.60;;
3311;SDS011;1668;49.648;8.570;2022-12-18T04:25:53;33.07;;;16.07;;
3311;SDS011;1668;49.648;8.570;2022-12-18T04:28:20;37.10;;;17.37;;
3311;SDS011;1668;49.648;8.570;2022-12-18T04:30:50;36.00;;;17.10;;
3311;SDS011;1668;49.648;8.570;2022-12-18T04:33:17;35.57;;;16.57;;
3311;SDS011;1668;49.648;8.570;2022-12-18T04:35:46;38.60;;;17.50;;
3311;SDS011;1668;49.648;8.570;2022-12-18T04:38:13;38.20;;;16.90;;
3311;SDS011;1668;49.648;8.570;2022-12-18T04:40:40;38.17;;;17.03;;
3311;SDS011;1668;49.648;8.570;2022-12-18T04:43:07;35.53;;;16.93;;
3311;SDS011;1668;49.648;8.570;2022-12-18T04:45:34;38.83;;;16.63;;
3311;SDS011;1668;49.648;8.570;2022-12-18T04:48:01;37.83;;;16.80;;
3311;SDS011;1668;49.648;8.570;2022-12-18T04:50:29;42.77;;;17.87;;
3311;SDS011;1668;49.648;8.570;2022-12-18T04:52:57;37.30;;;16.50;;
3311;SDS011;1668;49.648;8.570;2022-12-18T04:55:24;40.17;;;17.83;;
3311;SDS011;1668;49.648;8.570;2022-12-18T04:57:51;34.67;;;15.90;;
3311;SDS011;1668;49.648;8.570;2022-12-18T05:00:18;35.27;;;16.93;;
3311;SDS011;1668;49.648;8.570;2022-12-18T05:02:45;34.13;;;15.93;;
3311;SDS011;1668;49.648;8.570;2022-12-18T05:05:12;32.17;;;17.10;;
3311;SDS011;1668;49.648;8.570;2022-12-18T05:07:39;34.80;;;16.23;;
3311;SDS011;1668;49.648;8.570;2022-12-18T05:10:08;36.80;;;17.10;;
3311;SDS011;1668;49.648;8.570;2022-12-18T05:12:35;34.17;;;16.27;;
3311;SDS011;1668;49.648;8.570;2022-12-18T05:15:23;39.33;;;17.67;;
3311;SDS011;1668;49.648;8.570;2022-12-18T05:17:50;40.63;;;17.90;;
3311;SDS011;1668;49.648;8.570;2022-12-18T05:20:17;38.20;;;17.80;;
3311;SDS011;1668;49.648;8.570;2022-12-18T05:22:44;38.70;;;17.60;;
3311;SDS011;1668;49.648;8.570;2022-12-18T05:25:12;39.03;;;17.67;;
3311;SDS011;1668;49.648;8.570;2022-12-18T05:27:39;35.00;;;17.07;;
3311;SDS011;1668;49.648;8.570;2022-12-18T05:30:06;38.27;;;16.80;;
3311;SDS011;1668;49.648;8.570;2022-12-18T05:32:34;35.43;;;16.70;;
3311;SDS011;1668;49.648;8.570;2022-12-18T05:35:00;34.90;;;16.77;;
3311;SDS011;1668;49.648;8.570;2022-12-18T05:37:27;36.20;;;16.67;;
3311;SDS011;1668;49.648;8.570;2022-12-18T05:39:54;37.53;;;17.30;;
3311;SDS011;1668;49.648;8.570;2022-12-18T05:42:22;40.23;;;17.63;;
3311;SDS011;1668;49.648;8.570;2022-12-18T05:44:49;34.30;;;16.77;;
3311;SDS011;1668;49.648;8.570;2022-12-18T05:47:16;40.97;;;17.10;;
3311;SDS011;1668;49.648;8.570;2022-12-18T05:49:43;36.40;;;16.13;;
3311;SDS011;1668;49.648;8.570;2022-12-18T05:52:09;38.80;;;18.20;;
3311;SDS011;1668;49.648;8.570;2022-12-18T05:54:36;43.87;;;17.73;;
3311;SDS011;1668;49.648;8.570;2022-12-18T05:57:04;40.37;;;18.27;;
3311;SDS011;1668;49.648;8.570;2022-12-18T05:59:32;39.23;;;16.80;;
3311;SDS011;1668;49.648;8.570;2022-12-18T06:01:59;34.97;;;15.80;;
3311;SDS011;1668;49.648;8.570;2022-12-18T06:04:26;41.23;;;17.13;;
3311;SDS011;1668;49.648;8.570;2022-12-18T06:06:57;36.67;;;16.60;;
3311;SDS011;1668;49.648;8.570;2022-12-18T06:09:24;37.13;;;17.23;;
3311;SDS011;1668;49.648;8.570;2022-12-18T06:11:51;34.70;;;16.03;;
3311;SDS011;1668;49.648;8.570;2022-12-18T06:14:18;40.60;;;17.30;;
3311;SDS011;1668;49.648;8.570;2022-12-18T06:16:46;39.20;;;17.60;;
3311;SDS011;1668;49.648;8.570;2022-12-18T06:19:14;39.70;;;16.70;;
3311;SDS011;1668;49.648;8.570;2022-12-18T06:21:42;40.23;;;17.47;;
3311;SDS011;1668;49.648;8.570;2022-12-18T06:24:09;37.60;;;17.63;;
3311;SDS011;1668;49.648;8.570;2022-12-18T06:26:36;38.67;;;17.33;;
3311;SDS011;1668;49.648;8.570;2022-12-18T06:29:03;38.73;;;17.57;;
3311;SDS011;1668;49.648;8.570;2022-12-18T06:31:30;40.00;;;16.67;;
3311;SDS011;1668;49.648;8.570;2022-12-18T06:34:00;34.87;;;16.33;;
3311;SDS011;1668;49.648;8.570;2022-12-18T06:36:31;37.70;;;17.30;;
3311;SDS011;1668;49.648;8.570;2022-12-18T06:38:58;37.33;;;16.60;;
3311;SDS011;1668;49.648;8.570;2022-12-18T06:41:25;38.83;;;15.67;;
3311;SDS011;1668;49.648;8.570;2022-12-18T06:43:52;39.77;;;16.60;;
3311;SDS011;1668;49.648;8.570;2022-12-18T06:46:19;44.13;;;18.40;;
3311;SDS011;1668;49.648;8.570;2022-12-18T06:48:46;45.87;;;17.83;;
3311;SDS011;1668;49.648;8.570;2022-12-18T06:51:17;37.30;;;17.00;;
3311;SDS011;1668;49.648;8.570;2022-12-18T06:53:44;45.27;;;17.90;;
3311;SDS011;1668;49.648;8.570;2022-12-18T06:56:11;48.77;;;19.77;;
3311;SDS011;1668;49.648;8.570;2022-12-18T06:58:38;40.53;;;18.47;;
3311;SDS011;1668;49.648;8.570;2022-12-18T07:01:06;37.93;;;18.97;;
3311;SDS011;1668;49.648;8.570;2022-12-18T07:03:34;41.30;;;18.43;;
3311;SDS011;1668;49.648;8.570;2022-12-18T07:06:01;37.00;;;16.60;;
3311;SDS011;1668;49.648;8.570;2022-12-18T07:08:30;41.17;;;17.57;;
3311;SDS011;1668;49.648;8.570;2022-12-18T07:10:58;36.10;;;16.00;;
3311;SDS011;1668;49.648;8.570;2022-12-18T07:13:25;38.87;;;17.50;;
3311;SDS011;1668;49.648;8.570;2022-12-18T07:15:52;42.57;;;18.07;;
3311;SDS011;1668;49.648;8.570;2022-12-18T07:18:19;38.87;;;17.27;;
3311;SDS011;1668;49.648;8.570;2022-12-18T07:20:45;34.13;;;15.43;;
3311;SDS011;1668;49.648;8.570;2022-12-18T07:23:12;35.97;;;16.37;;
3311;SDS011;1668;49.648;8.570;2022-12-18T07:25:40;39.43;;;17.27;;
3311;SDS011;1668;49.648;8.570;2022-12-18T07:28:07;38.43;;;16.80;;
3311;SDS011;1668;49.648;8.570;2022-12-18T07:30:36;35.70;;;16.50;;
3311;SDS011;1668;49.648;8.570;2022-12-18T07:33:03;32.70;;;16.10;;
3311;SDS011;1668;49.648;8.570;2022-12-18T07:35:30;37.33;;;16.63;;
3311;SDS011;1668;49.648;8.570;2022-12-18T07:38:01;38.87;;;17.00;;
3311;SDS011;1668;49.648;8.570;2022-12-18T07:40:28;38.00;;;18.03;;
3311;SDS011;1668;49.648;8.570;2022-12-18T07:42:57;35.90;;;17.53;;
3311;SDS011;1668;49.648;8.570;2022-12-18T07:45:24;38.77;;;17.77;;
3311;SDS011;1668;49.648;8.570;2022-12-18T07:47:50;46.87;;;19.00;;
3311;SDS011;1668;49.648;8.570;2022-12-18T07:50:17;40.13;;;17.80;;
3311;SDS011;1668;49.648;8.570;2022-12-18T07:52:44;40.90;;;19.30;;
3311;SDS011;1668;49.648;8.570;2022-12-18T07:55:11;43.33;;;19.00;;
3311;SDS011;1668;49.648;8.570;2022-12-18T07:57:38;43.07;;;18.37;;
3311;SDS011;1668;49.648;8.570;2022-12-18T08:00:07;47.80;;;19.67;;
3311;SDS011;1668;49.648;8.570;2022-12-18T08:02:34;43.03;;;19.63;;
3311;SDS011;1668;49.648;8.570;2022-12-18T08:05:01;42.97;;;18.83;;
3311;SDS011;1668;49.648;8.570;2022-12-18T08:07:28;47.17;;;19.90;;
3311;SDS011;1668;49.648;8.570;2022-12-18T08:09:55;45.17;;;18.20;;
3311;SDS011;1668;49.648;8.570;2022-12-18T08:12:22;44.23;;;19.47;;
3311;SDS011;1668;49.648;8.570;2022-12-18T08:14:49;43.17;;;18.33;;
3311;SDS011;1668;49.648;8.570;2022-12-18T08:17:18;45.63;;;20.20;;
3311;SDS011;1668;49.648;8.570;2022-12-18T08:19:45;44.03;;;19.83;;
3311;SDS011;1668;49.648;8.570;2022-12-18T08:22:12;44.47;;;19.53;;
3311;SDS011;1668;49.648;8.570;2022-12-18T08:24:40;38.63;;;19.33;;
3311;SDS011;1668;49.648;8.570;2022-12-18T08:27:07;46.73;;;20.37;;
3311;SDS011;1668;49.648;8.570;2022-12-18T08:29:34;51.20;;;21.53;;
3311;SDS011;1668;49.648;8.570;2022-12-18T08:32:00;44.93;;;20.00;;
3311;SDS011;1668;49.648;8.570;2022-12-18T08:34:29;47.37;;;19.43;;
3311;SDS011;1668;49.648;8.570;2022-12-18T08:36:55;47.87;;;19.90;;
3311;SDS011;1668;49.648;8.570;2022-12-18T08:39:22;46.60;;;19.80;;
3311;SDS011;1668;49.648;8.570;2022-12-18T08:41:49;46.67;;;20.23;;
3311;SDS011;1668;49.648;8.570;2022-12-18T08:44:30;54.27;;;22.03;;
3311;SDS011;1668;49.648;8.570;2022-12-18T08:47:06;48.93;;;21.07;;
3311;SDS011;1668;49.648;8.570;2022-12-18T08:49:34;44.47;;;18.77;;
3311;SDS011;1668;49.648;8.570;2022-12-18T08:52:01;47.00;;;20.13;;
3311;SDS011;1668;49.648;8.570;2022-12-18T08:54:28;38.90;;;18.90;;
3311;SDS011;1668;49.648;8.570;2022-12-18T08:56:55;36.80;;;17.67;;
3311;SDS011;1668;49.648;8.570;2022-12-18T08:59:22;38.00;;;17.57;;
3311;SDS011;1668;49.648;8.570;2022-12-18T09:01:49;37.30;;;19.50;;
3311;SDS011;1668;49.648;8.570;2022-12-18T09:04:16;48.60;;;19.40;;
3311;SDS011;1668;49.648;8.570;2022-12-18T09:06:44;45.70;;;19.10;;
3311;SDS011;1668;49.648;8.570;2022-12-18T09:09:11;42.60;;;19.33;;
3311;SDS011;1668;49.648;8.570;2022-12-18T09:11:38;43.70;;;18.40;;
3311;SDS011;1668;49.648;8.570;2022-12-18T09:14:05;43.70;;;19.70;;
3311;SDS011;1668;49.648;8.570;2022-12-18T09:16:32;42.50;;;19.77;;
3311;SDS011;1668;49.648;8.570;2022-12-18T09:19:00;40.07;;;18.40;;
3311;SDS011;1668;49.648;8.570;2022-12-18T09:21:28;45.33;;;19.47;;
3311;SDS011;1668;49.648;8.570;2022-12-18T09:23:58;41.07;;;18.10;;
3311;SDS011;1668;49.648;8.570;2022-12-18T09:26:25;42.50;;;18.70;;
3311;SDS011;1668;49.648;8.570;2022-12-18T09:28:52;39.57;;;18.00;;
3311;SDS011;1668;49.648;8.570;2022-12-18T09:31:21;40.97;;;18.17;;
3311;SDS011;1668;49.648;8.570;2022-12-18T09:33:49;42.90;;;19.53;;
3311;SDS011;1668;49.648;8.570;2022-12-18T09:36:16;39.30;;;19.13;;
3311;SDS011;1668;49.648;8.570;2022-12-18T09:38:44;35.40;;;17.17;;
3311;SDS011;1668;49.648;8.570;2022-12-18T09:41:23;36.83;;;18.50;;
3311;SDS011;1668;49.648;8.570;2022-12-18T09:44:04;38.00;;;17.53;;
3311;SDS011;1668;49.648;8.570;2022-12-18T09:46:41;36.63;;;17.90;;
3311;SDS011;1668;49.648;8.570;2022-12-18T09:49:12;36.10;;;17.70;;
3311;SDS011;1668;49.648;8.570;2022-12-18T09:51:43;44.13;;;20.53;;
3311;SDS011;1668;49.648;8.570;2022-12-18T09:54:14;51.30;;;22.80;;
3311;SDS011;1668;49.648;8.570;2022-12-18T09:56:47;41.53;;;19.00;;
3311;SDS011;1668;49.648;8.570;2022-12-18T09:59:17;42.20;;;20.13;;
3311;SDS011;1668;49.648;8.570;2022-12-18T10:01:48;46.80;;;21.23;;
3311;SDS011;1668;49.648;8.570;2022-12-18T10:04:15;43.60;;;20.83;;
3311;SDS011;1668;49.648;8.570;2022-12-18T10:06:43;41.00;;;19.80;;
3311;SDS011;1668;49.648;8.570;2022-12-18T10:09:14;45.63;;;20.50;;
3311;SDS011;1668;49.648;8.570;2022-12-18T10:11:50;43.50;;;20.67;;
3311;SDS011;1668;49.648;8.570;2022-12-18T10:14:26;46.63;;;19.60;;
3311;SDS011;1668;49.648;8.570;2022-12-18T10:17:02;49.20;;;21.80;;
3311;SDS011;1668;49.648;8.570;2022-12-18T10:19:40;47.03;;;21.57;;
3311;SDS011;1668;49.648;8.570;2022-12-18T10:22:18;49.23;;;21.63;;
3311;SDS011;1668;49.648;8.570;2022-12-18T10:25:05;46.80;;;21.40;;
3311;SDS011;1668;49.648;8.570;2022-12-18T10:27:43;52.03;;;22.43;;
3311;SDS011;1668;49.648;8.570;2022-12-18T10:30:12;44.73;;;22.40;;
3311;SDS011;1668;49.648;8.570;2022-12-18T10:32:40;52.23;;;22.67;;
3311;SDS011;1668;49.648;8.570;2022-12-18T10:35:08;51.60;;;23.70;;
3311;SDS011;1668;49.648;8.570;2022-12-18T10:40:25;54.63;;;23.73;;
3311;SDS011;1668;49.648;8.570;2022-12-18T10:43:04;54.33;;;23.90;;
3311;SDS011;1668;49.648;8.570;2022-12-18T10:45:32;43.90;;;22.50;;
3311;SDS011;1668;49.648;8.570;2022-12-18T10:48:00;46.43;;;22.10;;
3311;SDS011;1668;49.648;8.570;2022-12-18T10:50:28;47.03;;;22.17;;
3311;SDS011;1668;49.648;8.570;2022-12-18T10:52:57;43.30;;;21.83;;
3311;SDS011;1668;49.648;8.570;2022-12-18T10:55:27;48.17;;;22.37;;
3311;SDS011;1668;49.648;8.570;2022-12-18T10:58:12;51.77;;;22.07;;
3311;SDS011;1668;49.648;8.570;2022-12-18T11:00:43;45.63;;;21.20;;
3311;SDS011;1668;49.648;8.570;2022-12-18T11:03:28;46.20;;;20.30;;
3311;SDS011;1668;49.648;8.570;2022-12-18T11:06:02;41.43;;;20.90;;
3311;SDS011;1668;49.648;8.570;2022-12-18T11:08:30;43.57;;;21.83;;
3311;SDS011;1668;49.648;8.570;2022-12-18T11:10:57;43.83;;;22.53;;
3311;SDS011;1668;49.648;8.570;2022-12-18T11:13:26;47.03;;;24.20;;
3311;SDS011;1668;49.648;8.570;2022-12-18T11:15:55;43.03;;;20.90;;
3311;SDS011;1668;49.648;8.570;2022-12-18T11:18:23;44.67;;;21.10;;
3311;SDS011;1668;49.648;8.570;2022-12-18T11:20:53;40.57;;;20.20;;
3311;SDS011;1668;49.648;8.570;2022-12-18T11:23:23;41.50;;;19.97;;
3311;SDS011;1668;49.648;8.570;2022-12-18T11:25:51;41.53;;;19.90;;
3311;SDS011;1668;49.648;8.570;2022-12-18T11:28:29;43.57;;;20.30;;
3311;SDS011;1668;49.648;8.570;2022-12-18T11:31:09;36.23;;;19.47;;
3311;SDS011;1668;49.648;8.570;2022-12-18T11:33:49;39.87;;;20.00;;
3311;SDS011;1668;49.648;8.570;2022-12-18T11:36:22;34.87;;;20.00;;
3311;SDS011;1668;49.648;8.570;2022-12-18T11:38:51;40.40;;;20.33;;
3311;SDS011;1668;49.648;8.570;2022-12-18T11:41:21;39.70;;;20.17;;
3311;SDS011;1668;49.648;8.570;2022-12-18T11:44:17;35.27;;;18.87;;
3311;SDS011;1668;49.648;8.570;2022-12-18T11:46:51;40.67;;;20.53;;
3311;SDS011;1668;49.648;8.570;2022-12-18T11:49:22;41.37;;;20.40;;
3311;SDS011;1668;49.648;8.570;2022-12-18T11:51:55;41.23;;;21.43;;
3311;SDS011;1668;49.648;8.570;2022-12-18T11:54:29;41.40;;;21.60;;
3311;SDS011;1668;49.648;8.570;2022-12-18T11:56:58;39.30;;;20.07;;
3311;SDS011;1668;49.648;8.570;2022-12-18T11:59:33;41.20;;;20.50;;
3311;SDS011;1668;49.648;8.570;2022-12-18T12:02:14;40.03;;;22.07;;
3311;SDS011;1668;49.648;8.570;2022-12-18T12:05:04;40.73;;;20.70;;
3311;SDS011;1668;49.648;8.570;2022-12-18T12:07:44;45.10;;;21.73;;
3311;SDS011;1668;49.648;8.570;2022-12-18T12:10:22;42.60;;;20.93;;
3311;SDS011;1668;49.648;8.570;2022-12-18T12:12:59;39.67;;;21.37;;
3311;SDS011;1668;49.648;8.570;2022-12-18T12:15:42;47.37;;;22.70;;
3311;SDS011;1668;49.648;8.570;2022-12-18T12:18:18;39.77;;;21.50;;
3311;SDS011;1668;49.648;8.570;2022-12-18T12:20:53;44.20;;;22.73;;
3311;SDS011;1668;49.648;8.570;2022-12-18T12:23:30;43.80;;;21.90;;
3311;SDS011;1668;49.648;8.570;2022-12-18T12:26:06;42.27;;;22.00;;
3311;SDS011;1668;49.648;8.570;2022-12-18T12:31:50;46.07;;;22.93;;
3311;SDS011;1668;49.648;8.570;2022-12-18T12:34:25;39.50;;;20.67;;
3311;SDS011;1668;49.648;8.570;2022-12-18T12:37:01;43.47;;;22.60;;
3311;SDS011;1668;49.648;8.570;2022-12-18T12:39:40;43.70;;;22.23;;
3311;SDS011;1668;49.648;8.570;2022-12-18T12:42:12;48.33;;;24.63;;
3311;SDS011;1668;49.648;8.570;2022-12-18T12:45:14;41.63;;;22.37;;
3311;SDS011;1668;49.648;8.570;2022-12-18T12:47:48;37.70;;;21.67;;
3311;SDS011;1668;49.648;8.570;2022-12-18T12:50:16;44.27;;;21.87;;
3311;SDS011;1668;49.648;8.570;2022-12-18T12:52:46;46.60;;;22.27;;
3311;SDS011;1668;49.648;8.570;2022-12-18T12:55:17;41.93;;;22.33;;
3311;SDS011;1668;49.648;8.570;2022-12-18T12:57:48;40.60;;;22.07;;
3311;SDS011;1668;49.648;8.570;2022-12-18T13:00:35;44.63;;;23.57;;
3311;SDS011;1668;49.648;8.570;2022-12-18T13:03:14;43.87;;;21.50;;
3311;SDS011;1668;49.648;8.570;2022-12-18T13:05:49;39.13;;;21.80;;
3311;SDS011;1668;49.648;8.570;2022-12-18T13:08:22;34.90;;;18.50;;
3311;SDS011;1668;49.648;8.570;2022-12-18T13:10:51;35.37;;;20.23;;
3311;SDS011;1668;49.648;8.570;2022-12-18T13:13:47;43.50;;;21.40;;
3311;SDS011;1668;49.648;8.570;2022-12-18T13:16:14;40.20;;;21.30;;
3311;SDS011;1668;49.648;8.570;2022-12-18T13:18:49;39.53;;;20.37;;
3311;SDS011;1668;49.648;8.570;2022-12-18T13:21:20;36.87;;;18.90;;
3311;SDS011;1668;49.648;8.570;2022-12-18T13:23:49;39.63;;;21.17;;
3311;SDS011;1668;49.648;8.570;2022-12-18T13:26:28;41.70;;;21.03;;
3311;SDS011;1668;49.648;8.570;2022-12-18T13:28:58;46.07;;;21.60;;
3311;SDS011;1668;49.648;8.570;2022-12-18T13:34:34;42.77;;;21.87;;
3311;SDS011;1668;49.648;8.570;2022-12-18T13:43:23;40.80;;;22.00;;
3311;SDS011;1668;49.648;8.570;2022-12-18T13:46:06;39.80;;;20.53;;
3311;SDS011;1668;49.648;8.570;2022-12-18T13:48:49;41.67;;;21.00;;
3311;SDS011;1668;49.648;8.570;2022-12-18T13:51:20;41.53;;;21.07;;
3311;SDS011;1668;49.648;8.570;2022-12-18T13:53:49;45.60;;;22.90;;
3311;SDS011;1668;49.648;8.570;2022-12-18T13:56:22;39.90;;;21.37;;
3311;SDS011;1668;49.648;8.570;2022-12-18T13:59:03;42.43;;;21.73;;
3311;SDS011;1668;49.648;8.570;2022-12-18T14:01:41;40.20;;;22.20;;
3311;SDS011;1668;49.648;8.570;2022-12-18T14:04:16;45.00;;;22.93;;
3311;SDS011;1668;49.648;8.570;2022-12-18T14:06:47;39.27;;;20.43;;
3311;SDS011;1668;49.648;8.570;2022-12-18T14:09:17;40.80;;;21.70;;
3311;SDS011;1668;49.648;8.570;2022-12-18T14:11:47;42.03;;;23.13;;
3311;SDS011;1668;49.648;8.570;2022-12-18T14:14:15;46.47;;;23.37;;
3311;SDS011;1668;49.648;8.570;2022-12-18T14:16:42;46.07;;;25.10;;
3311;SDS011;1668;49.648;8.570;2022-12-18T14:19:11;58.93;;;30.80;;
3311;SDS011;1668;49.648;8.570;2022-12-18T14:21:45;47.10;;;23.93;;
3311;SDS011;1668;49.648;8.570;2022-12-18T14:24:15;51.13;;;25.03;;
3311;SDS011;1668;49.648;8.570;2022-12-18T14:26:43;44.73;;;23.60;;
3311;SDS011;1668;49.648;8.570;2022-12-18T14:29:18;41.40;;;22.83;;
3311;SDS011;1668;49.648;8.570;2022-12-18T14:32:06;44.27;;;24.70;;
3311;SDS011;1668;49.648;8.570;2022-12-18T14:34:35;45.77;;;23.67;;
3311;SDS011;1668;49.648;8.570;2022-12-18T14:37:03;48.10;;;25.73;;
3311;SDS011;1668;49.648;8.570;2022-12-18T14:39:31;44.30;;;24.30;;
3311;SDS011;1668;49.648;8.570;2022-12-18T14:41:58;51.37;;;25.63;;
3311;SDS011;1668;49.648;8.570;2022-12-18T14:44:25;52.50;;;25.90;;
3311;SDS011;1668;49.648;8.570;2022-12-18T14:46:52;54.97;;;25.03;;
3311;SDS011;1668;49.648;8.570;2022-12-18T14:49:20;47.67;;;24.73;;
3311;SDS011;1668;49.648;8.570;2022-12-18T14:51:49;49.10;;;25.33;;
3311;SDS011;1668;49.648;8.570;2022-12-18T14:54:20;47.90;;;24.17;;
3311;SDS011;1668;49.648;8.570;2022-12-18T14:56:48;47.27;;;25.00;;
3311;SDS011;1668;49.648;8.570;2022-12-18T14:59:19;112.90;;;45.27;;
3311;SDS011;1668;49.648;8.570;2022-12-18T15:01:48;90.53;;;41.77;;
3311;SDS011;1668;49.648;8.570;2022-12-18T15:04:24;52.73;;;26.80;;
3311;SDS011;1668;49.648;8.570;2022-12-18T15:07:04;49.70;;;25.27;;
3311;SDS011;1668;49.648;8.570;2022-12-18T15:09:36;44.17;;;23.63;;
3311;SDS011;1668;49.648;8.570;2022-12-18T15:12:04;43.90;;;24.17;;
3311;SDS011;1668;49.648;8.570;2022-12-18T15:14:32;45.67;;;23.60;;
3311;SDS011;1668;49.648;8.570;2022-12-18T15:17:02;42.40;;;22.93;;
3311;SDS011;1668;49.648;8.570;2022-12-18T15:19:37;41.53;;;22.97;;
3311;SDS011;1668;49.648;8.570;2022-12-18T15:22:14;45.20;;;21.97;;
3311;SDS011;1668;49.648;8.570;2022-12-18T15:24:47;40.30;;;21.93;;